createdAt,value
2017-10-24T00:02:11.647Z,3.97
2017-10-24T00:04:37.961Z,4.47
2017-10-24T00:07:04.302Z,4.18
2017-10-24T00:09:31.614Z,4.07
2017-10-24T00:12:00.321Z,3.60
2017-10-24T00:14:27.377Z,4.30
2017-10-24T00:16:54.498Z,4.03
2017-10-24T00:19:20.831Z,3.53
2017-10-24T00:21:48.214Z,4.30
2017-10-24T00:24:15.311Z,4.30
2017-10-24T00:26:42.634Z,4.40
2017-10-24T00:29:08.963Z,3.70
2017-10-24T00:31:35.340Z,4.45
2017-10-24T00:34:01.675Z,4.15
2017-10-24T00:36:28.003Z,3.55
2017-10-24T00:38:54.326Z,4.20
2017-10-24T00:41:20.662Z,4.57
2017-10-24T00:43:47.006Z,3.50
2017-10-24T00:46:13.334Z,4.07
2017-10-24T00:48:39.650Z,4.20
2017-10-24T00:51:05.990Z,4.00
2017-10-24T00:53:32.318Z,4.03
2017-10-24T00:55:58.774Z,4.45
2017-10-24T00:58:25.856Z,3.78
2017-10-24T01:00:52.231Z,4.50
2017-10-24T01:03:18.621Z,4.10
2017-10-24T01:05:44.996Z,4.15
2017-10-24T01:08:11.338Z,4.82
2017-10-24T01:10:38.430Z,4.40
2017-10-24T01:13:04.750Z,5.07
2017-10-24T01:15:31.823Z,4.43
2017-10-24T01:17:58.166Z,4.40
2017-10-24T01:20:24.536Z,4.75
2017-10-24T01:22:51.628Z,4.60
2017-10-24T01:25:17.980Z,4.20
2017-10-24T01:27:44.314Z,4.00
2017-10-24T01:30:10.671Z,5.03
2017-10-24T01:32:37.939Z,3.95
2017-10-24T01:35:04.311Z,3.50
2017-10-24T01:37:30.676Z,3.83
2017-10-24T01:39:57.055Z,4.32
2017-10-24T01:42:23.402Z,4.03
2017-10-24T01:44:49.762Z,3.87
2017-10-24T01:47:16.097Z,3.40
2017-10-24T01:49:43.442Z,3.95
2017-10-24T01:52:09.805Z,3.90
2017-10-24T01:54:37.124Z,3.47
2017-10-24T01:57:03.480Z,3.40
2017-10-24T01:59:30.559Z,3.58
2017-10-24T02:01:56.893Z,3.92
2017-10-24T02:04:23.234Z,3.85
2017-10-24T02:06:49.566Z,3.42
2017-10-24T02:09:15.918Z,3.65
2017-10-24T02:11:42.266Z,3.20
2017-10-24T02:14:09.351Z,2.95
2017-10-24T02:16:35.699Z,3.40
2017-10-24T02:19:02.040Z,4.10
2017-10-24T02:21:28.382Z,4.40
2017-10-24T02:23:54.707Z,3.33
2017-10-24T02:26:21.059Z,3.70
2017-10-24T02:28:47.419Z,3.75
2017-10-24T02:31:13.738Z,3.75
2017-10-24T02:33:40.817Z,4.68
2017-10-24T02:36:07.162Z,3.75
2017-10-24T02:38:33.546Z,3.40
2017-10-24T02:41:00.627Z,4.10
2017-10-24T02:43:26.951Z,3.33
2017-10-24T02:45:53.318Z,4.10
2017-10-24T02:48:19.667Z,3.33
2017-10-24T02:50:46.017Z,4.03
2017-10-24T02:53:13.090Z,4.10
2017-10-24T02:55:39.434Z,4.35
2017-10-24T02:58:06.042Z,4.47
2017-10-24T03:00:33.123Z,3.35
2017-10-24T03:02:59.477Z,4.00
2017-10-24T03:05:25.787Z,3.65
2017-10-24T03:07:52.130Z,3.70
2017-10-24T03:10:18.494Z,5.00
2017-10-24T03:12:45.574Z,4.53
2017-10-24T03:15:11.879Z,4.35
2017-10-24T03:17:38.961Z,4.07
2017-10-24T03:20:05.295Z,4.20
2017-10-24T03:22:31.651Z,3.50
2017-10-24T03:24:57.995Z,4.30
2017-10-24T03:27:24.308Z,3.62
2017-10-24T03:29:50.635Z,4.15
2017-10-24T03:32:16.947Z,2.80
2017-10-24T03:34:43.255Z,3.87
2017-10-24T03:37:09.574Z,4.05
2017-10-24T03:39:36.625Z,3.45
2017-10-24T03:42:02.937Z,3.95
2017-10-24T03:44:29.997Z,4.90
2017-10-24T03:46:57.042Z,3.33
2017-10-24T03:49:24.127Z,3.75
2017-10-24T03:51:50.435Z,3.95
2017-10-24T03:54:16.784Z,3.75
2017-10-24T03:56:43.150Z,3.72
2017-10-24T03:59:09.483Z,3.40
2017-10-24T04:01:36.832Z,3.58
2017-10-24T04:04:03.167Z,3.40
2017-10-24T04:06:29.527Z,3.50
2017-10-24T04:08:56.610Z,3.22
2017-10-24T04:11:23.004Z,3.20
2017-10-24T04:13:50.097Z,3.42
2017-10-24T04:16:16.414Z,3.30
2017-10-24T04:18:42.727Z,3.12
2017-10-24T04:21:09.072Z,2.92
2017-10-24T04:23:35.418Z,2.72
2017-10-24T04:26:01.767Z,2.72
2017-10-24T04:28:28.172Z,3.75
2017-10-24T04:30:54.502Z,2.45
2017-10-24T04:33:20.875Z,3.00
2017-10-24T04:35:47.960Z,3.28
2017-10-24T04:38:14.268Z,3.10
2017-10-24T04:40:42.367Z,3.00
2017-10-24T04:43:08.718Z,2.92
2017-10-24T04:45:35.806Z,2.80
2017-10-24T04:48:02.118Z,2.75
2017-10-24T04:50:28.538Z,2.70
2017-10-24T04:52:54.871Z,2.58
2017-10-24T04:55:22.205Z,2.90
2017-10-24T04:57:48.508Z,2.62
2017-10-24T05:00:14.833Z,2.72
2017-10-24T05:02:41.154Z,2.90
2017-10-24T05:05:08.215Z,3.03
2017-10-24T05:07:34.538Z,2.42
2017-10-24T05:10:00.851Z,2.58
2017-10-24T05:12:27.898Z,3.00
2017-10-24T05:14:54.944Z,2.50
2017-10-24T05:17:22.006Z,2.75
2017-10-24T05:19:49.086Z,2.60
2017-10-24T05:22:16.142Z,2.60
2017-10-24T05:24:42.456Z,2.62
2017-10-24T05:27:08.778Z,2.87
2017-10-24T05:29:35.086Z,2.92
2017-10-24T05:32:03.166Z,2.20
2017-10-24T05:34:29.504Z,2.75
2017-10-24T05:36:55.802Z,2.00
2017-10-24T05:39:22.128Z,2.80
2017-10-24T05:41:48.427Z,2.40
2017-10-24T05:44:14.761Z,2.58
2017-10-24T05:46:41.292Z,3.15
2017-10-24T05:49:07.607Z,2.70
2017-10-24T05:51:33.917Z,2.33
2017-10-24T05:54:01.223Z,1.92
2017-10-24T05:56:27.525Z,2.75
2017-10-24T05:58:53.851Z,2.72
2017-10-24T06:01:20.158Z,2.78
2017-10-24T06:03:46.474Z,2.83
2017-10-24T06:06:13.533Z,3.37
2017-10-24T06:08:40.583Z,5.43
2017-10-24T06:11:07.083Z,3.80
2017-10-24T06:13:34.391Z,3.28
2017-10-24T06:16:00.703Z,2.25
2017-10-24T06:18:27.030Z,2.20
2017-10-24T06:20:53.347Z,2.17
2017-10-24T06:23:20.394Z,2.15
2017-10-24T06:25:47.443Z,2.47
2017-10-24T06:28:13.763Z,1.92
2017-10-24T06:30:41.854Z,2.55
2017-10-24T06:33:08.158Z,2.70
2017-10-24T06:35:35.241Z,2.78
2017-10-24T06:38:01.558Z,2.60
2017-10-24T06:40:27.902Z,2.60
2017-10-24T06:42:54.210Z,2.50
2017-10-24T06:45:21.281Z,2.10
2017-10-24T06:47:47.589Z,2.72
2017-10-24T06:50:14.638Z,1.70
2017-10-24T06:52:40.997Z,2.25
2017-10-24T06:55:07.335Z,2.00
2017-10-24T06:57:33.646Z,1.85
2017-10-24T06:59:59.999Z,2.85
2017-10-24T07:02:26.348Z,3.35
2017-10-24T07:04:52.694Z,1.83
2017-10-24T07:07:19.035Z,1.60
2017-10-24T07:09:46.136Z,1.65
2017-10-24T07:12:12.481Z,1.33
2017-10-24T07:14:38.830Z,1.65
2017-10-24T07:17:05.140Z,1.35
2017-10-24T07:19:31.470Z,1.83
2017-10-24T07:21:57.789Z,1.50
2017-10-24T07:24:24.138Z,2.30
2017-10-24T07:26:50.486Z,1.80
2017-10-24T07:29:17.843Z,1.90
2017-10-24T07:31:44.169Z,1.60
2017-10-24T07:34:11.271Z,1.65
2017-10-24T07:36:37.607Z,1.80
2017-10-24T07:39:03.962Z,0.90
2017-10-24T07:41:30.279Z,1.10
2017-10-24T07:43:56.601Z,1.20
2017-10-24T07:46:22.942Z,1.25
2017-10-24T07:48:49.312Z,1.10
2017-10-24T07:51:16.363Z,0.70
2017-10-24T07:53:43.415Z,0.75
2017-10-24T07:56:10.475Z,0.70
2017-10-24T07:58:36.794Z,0.88
2017-10-24T08:01:03.132Z,0.80
2017-10-24T08:03:29.447Z,0.80
2017-10-24T08:05:56.529Z,0.60
2017-10-24T08:08:22.855Z,0.57
2017-10-24T08:10:49.190Z,0.60
2017-10-24T08:13:15.494Z,1.00
2017-10-24T08:15:41.812Z,0.60
2017-10-24T08:18:08.142Z,0.70
2017-10-24T08:20:35.215Z,0.70
2017-10-24T08:23:01.534Z,0.77
2017-10-24T08:25:27.878Z,0.70
2017-10-24T08:27:54.217Z,0.77
2017-10-24T08:30:20.569Z,0.80
2017-10-24T08:32:46.903Z,0.40
2017-10-24T08:35:13.235Z,0.90
2017-10-24T08:37:39.563Z,0.70
2017-10-24T08:40:05.914Z,0.62
2017-10-24T08:42:32.231Z,0.60
2017-10-24T08:44:58.566Z,0.50
2017-10-24T08:47:24.923Z,0.50
2017-10-24T08:49:51.987Z,0.40
2017-10-24T08:52:18.311Z,0.60
2017-10-24T08:54:45.389Z,0.53
2017-10-24T08:57:11.719Z,0.60
2017-10-24T08:59:38.071Z,2.83
2017-10-24T09:02:04.454Z,6.87
2017-10-24T09:04:30.817Z,0.85
2017-10-24T09:06:57.171Z,3.12
2017-10-24T09:12:14.374Z,0.68
2017-10-24T09:14:40.709Z,0.80
2017-10-24T09:20:08.371Z,1.10
2017-10-24T09:22:34.711Z,1.50
2017-10-24T09:25:01.036Z,0.43
2017-10-24T09:27:27.392Z,1.80
2017-10-24T09:29:53.705Z,1.40
2017-10-24T09:32:20.050Z,0.93
2017-10-24T09:34:46.386Z,1.10
2017-10-24T09:37:12.771Z,0.93
2017-10-24T09:39:39.111Z,1.70
2017-10-24T09:42:06.458Z,0.80
2017-10-24T09:44:32.782Z,1.00
2017-10-24T09:46:59.127Z,0.80
2017-10-24T09:49:25.462Z,1.00
2017-10-24T09:51:51.773Z,2.83
2017-10-24T09:54:18.835Z,2.20
2017-10-24T09:56:45.667Z,2.10
2017-10-24T09:59:22.910Z,1.17
2017-10-24T10:01:49.274Z,1.20
2017-10-24T10:04:16.356Z,0.90
2017-10-24T10:07:06.599Z,1.50
2017-10-24T10:09:33.682Z,0.90
2017-10-24T10:11:59.994Z,1.43
2017-10-24T10:14:26.319Z,0.90
2017-10-24T10:16:53.374Z,2.87
2017-10-24T10:19:20.697Z,1.50
2017-10-24T10:21:50.834Z,2.13
2017-10-24T10:24:34.703Z,1.30
2017-10-24T10:27:01.038Z,0.70
2017-10-24T10:29:27.379Z,0.70
2017-10-24T10:31:53.722Z,0.90
2017-10-24T10:34:20.063Z,1.70
2017-10-24T10:36:46.390Z,0.73
2017-10-24T10:39:13.730Z,1.17
2017-10-24T10:41:40.075Z,1.70
2017-10-24T10:44:06.414Z,0.87
2017-10-24T10:46:32.742Z,2.17
2017-10-24T10:48:59.054Z,1.57
2017-10-24T10:51:25.481Z,0.80
2017-10-24T10:53:52.778Z,1.50
2017-10-24T10:56:19.831Z,0.70
2017-10-24T10:58:47.943Z,1.53
2017-10-24T11:01:14.275Z,0.93
2017-10-24T11:03:40.646Z,0.70
2017-10-24T11:06:06.990Z,0.83
2017-10-24T11:08:34.038Z,1.13
2017-10-24T11:11:01.093Z,0.90
2017-10-24T11:13:28.145Z,0.60
2017-10-24T11:15:55.200Z,1.00
2017-10-24T11:18:21.555Z,0.90
2017-10-24T11:20:47.861Z,1.03
2017-10-24T11:23:14.183Z,1.60
2017-10-24T11:25:41.250Z,0.90
2017-10-24T11:28:08.319Z,0.80
2017-10-24T11:30:34.644Z,1.10
2017-10-24T11:33:00.976Z,0.73
2017-10-24T11:35:28.334Z,1.03
2017-10-24T11:37:54.658Z,1.03
2017-10-24T11:40:20.966Z,0.90
2017-10-24T11:42:47.277Z,0.93
2017-10-24T11:45:14.342Z,1.10
2017-10-24T11:47:40.670Z,0.77
2017-10-24T11:50:07.002Z,0.97
2017-10-24T11:52:33.314Z,1.07
2017-10-24T11:55:00.366Z,0.80
2017-10-24T11:57:27.407Z,1.30
2017-10-24T11:59:54.477Z,1.00
2017-10-24T12:02:20.834Z,1.00
2017-10-24T12:04:47.148Z,0.90
2017-10-24T12:07:14.454Z,0.80
2017-10-24T12:09:41.548Z,1.17
2017-10-24T12:12:07.862Z,1.60
2017-10-24T12:14:34.167Z,0.80
2017-10-24T12:17:01.229Z,1.93
2017-10-24T12:19:28.282Z,0.80
2017-10-24T12:21:54.591Z,0.60
2017-10-24T12:24:22.655Z,0.80
2017-10-24T12:26:49.960Z,1.33
2017-10-24T12:29:16.303Z,2.70
2017-10-24T12:31:42.635Z,1.20
2017-10-24T12:34:08.962Z,1.77
2017-10-24T12:36:35.284Z,1.40
2017-10-24T12:39:01.636Z,0.90
2017-10-24T12:41:32.798Z,1.70
2017-10-24T12:44:00.915Z,1.03
2017-10-24T12:46:33.394Z,2.83
2017-10-24T12:49:01.698Z,1.23
2017-10-24T12:51:28.050Z,1.00
2017-10-24T12:53:54.386Z,1.77
2017-10-24T12:56:20.710Z,1.43
2017-10-24T12:58:47.035Z,1.40
2017-10-24T13:01:13.394Z,2.33
2017-10-24T13:03:40.471Z,3.03
2017-10-24T13:06:06.818Z,0.70
2017-10-24T13:08:33.159Z,2.67
2017-10-24T13:10:59.489Z,1.23
2017-10-24T13:13:25.806Z,0.90
2017-10-24T13:15:52.150Z,0.77
2017-10-24T13:18:18.515Z,2.10
2017-10-24T13:20:45.570Z,0.80
2017-10-24T13:23:11.886Z,0.50
2017-10-24T13:25:38.942Z,0.50
2017-10-24T13:28:07.015Z,0.50
2017-10-24T13:30:34.085Z,0.70
2017-10-24T13:33:00.406Z,0.53
2017-10-24T13:35:26.714Z,0.70
2017-10-24T13:37:53.770Z,0.70
2017-10-24T13:40:20.838Z,0.63
2017-10-24T13:42:47.163Z,0.40
2017-10-24T13:45:13.466Z,0.70
2017-10-24T13:47:40.559Z,0.80
2017-10-24T13:50:06.890Z,0.60
2017-10-24T13:52:33.539Z,1.10
2017-10-24T13:55:00.860Z,0.40
2017-10-24T13:57:27.176Z,0.50
2017-10-24T13:59:54.222Z,0.50
2017-10-24T14:02:21.315Z,0.60
2017-10-24T14:04:53.648Z,0.80
2017-10-24T14:07:26.162Z,0.70
2017-10-24T14:09:58.550Z,0.60
2017-10-24T14:12:24.869Z,0.90
2017-10-24T14:14:51.187Z,0.53
2017-10-24T14:17:17.489Z,0.70
2017-10-24T14:19:43.790Z,1.17
2017-10-24T14:22:10.127Z,0.73
2017-10-24T14:24:37.202Z,0.83
2017-10-24T14:27:03.535Z,0.90
2017-10-24T14:29:29.847Z,1.00
2017-10-24T14:31:56.891Z,2.50
2017-10-24T14:34:23.942Z,1.13
2017-10-24T14:36:50.991Z,3.30
2017-10-24T14:39:19.062Z,1.47
2017-10-24T14:41:46.103Z,1.03
2017-10-24T14:44:13.155Z,0.90
2017-10-24T14:46:40.206Z,0.80
2017-10-24T14:49:07.291Z,0.47
2017-10-24T14:51:33.609Z,0.80
2017-10-24T14:53:59.942Z,0.70
2017-10-24T14:56:26.263Z,0.60
2017-10-24T14:58:52.570Z,0.53
2017-10-24T15:01:19.642Z,0.77
2017-10-24T15:03:45.947Z,1.93
2017-10-24T15:06:12.998Z,1.00
2017-10-24T15:08:40.050Z,0.77
2017-10-24T15:11:06.374Z,0.70
2017-10-24T15:13:32.685Z,1.33
2017-10-24T15:15:59.757Z,0.60
2017-10-24T15:18:27.064Z,1.50
2017-10-24T15:20:54.391Z,3.27
2017-10-24T15:23:21.692Z,3.30
2017-10-24T15:25:48.763Z,1.47
2017-10-24T15:28:15.072Z,1.50
2017-10-24T15:30:43.162Z,1.00
2017-10-24T15:33:09.486Z,0.90
2017-10-24T15:35:36.562Z,4.03
2017-10-24T15:38:02.876Z,4.90
2017-10-24T15:40:29.204Z,2.30
2017-10-24T15:42:56.287Z,1.00
2017-10-24T15:45:22.588Z,1.80
2017-10-24T15:47:48.903Z,3.20
2017-10-24T15:50:15.972Z,1.23
2017-10-24T15:52:42.390Z,1.53
2017-10-24T15:55:08.712Z,2.00
2017-10-24T15:57:35.042Z,2.07
2017-10-24T16:00:01.391Z,0.67
2017-10-24T16:02:27.737Z,0.80
2017-10-24T16:04:54.107Z,0.50
2017-10-24T16:07:20.440Z,0.60
2017-10-24T16:09:47.790Z,0.70
2017-10-24T16:12:14.123Z,1.20
2017-10-24T16:14:40.479Z,0.50
2017-10-24T16:17:06.790Z,1.20
2017-10-24T16:19:33.142Z,1.87
2017-10-24T16:21:59.472Z,4.67
2017-10-24T16:24:25.793Z,2.87
2017-10-24T16:26:52.122Z,1.77
2017-10-24T16:29:19.180Z,0.70
2017-10-24T16:31:46.246Z,0.50
2017-10-24T16:34:12.558Z,0.97
2017-10-24T16:36:38.898Z,5.10
2017-10-24T16:39:05.211Z,0.90
2017-10-24T16:41:31.564Z,10.95
2017-10-24T16:43:57.911Z,1.50
2017-10-24T16:46:24.254Z,1.10
2017-10-24T16:48:50.598Z,0.75
2017-10-24T16:51:16.919Z,0.95
2017-10-24T16:53:43.243Z,1.50
2017-10-24T16:56:09.567Z,1.70
2017-10-24T16:58:35.888Z,0.98
2017-10-24T17:01:02.198Z,1.10
2017-10-24T17:03:28.521Z,1.77
2017-10-24T17:05:55.202Z,3.15
2017-10-24T17:08:21.589Z,2.15
2017-10-24T17:10:48.803Z,0.88
2017-10-24T17:13:15.155Z,1.30
2017-10-24T17:15:42.246Z,1.10
2017-10-24T17:18:08.560Z,1.13
2017-10-24T17:20:34.903Z,1.48
2017-10-24T17:23:01.251Z,1.00
2017-10-24T17:25:27.562Z,1.25
2017-10-24T17:27:53.870Z,0.68
2017-10-24T17:30:20.183Z,0.73
2017-10-24T17:32:48.229Z,0.82
2017-10-24T17:35:15.587Z,1.80
2017-10-24T17:37:41.915Z,1.23
2017-10-24T17:40:08.227Z,1.10
2017-10-24T17:42:34.547Z,0.60
2017-10-24T17:45:00.886Z,1.92
2017-10-24T17:47:27.204Z,1.42
2017-10-24T17:49:53.526Z,1.65
2017-10-24T17:52:19.841Z,3.30
2017-10-24T17:54:46.242Z,6.85
2017-10-24T17:57:13.317Z,1.70
2017-10-24T17:59:40.639Z,1.95
2017-10-24T18:02:07.695Z,0.70
2017-10-24T18:04:34.044Z,6.90
2017-10-24T18:07:03.594Z,8.40
2017-10-24T18:09:29.936Z,2.08
2017-10-24T18:11:56.271Z,2.20
2017-10-24T18:14:23.626Z,1.25
2017-10-24T18:16:49.951Z,1.20
2017-10-24T18:19:17.254Z,1.00
2017-10-24T18:21:59.142Z,1.15
2017-10-24T18:24:25.515Z,0.80
2017-10-24T18:26:51.831Z,1.00
2017-10-24T18:29:18.175Z,1.20
2017-10-24T18:31:44.631Z,1.15
2017-10-24T18:34:10.960Z,1.45
2017-10-24T18:36:38.295Z,1.10
2017-10-24T18:39:04.638Z,1.30
2017-10-24T18:41:30.958Z,1.48
2017-10-24T18:43:57.292Z,1.20
2017-10-24T18:46:23.624Z,1.12
2017-10-24T18:48:49.970Z,1.20
2017-10-24T18:51:16.324Z,1.00
2017-10-24T18:53:42.647Z,1.30
2017-10-24T18:56:09.723Z,0.93
2017-10-24T18:58:37.096Z,1.37
2017-10-24T19:01:04.469Z,1.90
2017-10-24T19:03:30.857Z,8.38
2017-10-24T19:05:57.174Z,6.60
2017-10-24T19:08:23.534Z,8.80
2017-10-24T19:10:49.902Z,5.30
2017-10-24T19:13:16.268Z,2.72
2017-10-24T19:15:42.578Z,3.15
2017-10-24T19:18:09.641Z,1.92
2017-10-24T19:20:35.958Z,2.92
2017-10-24T19:23:03.010Z,2.28
2017-10-24T19:25:30.070Z,1.92
2017-10-24T19:27:57.419Z,2.78
2017-10-24T19:30:25.487Z,2.53
2017-10-24T19:32:51.796Z,2.90
2017-10-24T19:35:18.866Z,2.95
2017-10-24T19:37:45.923Z,2.10
2017-10-24T19:40:12.288Z,2.65
2017-10-24T19:42:38.614Z,2.78
2017-10-24T19:45:04.955Z,2.35
2017-10-24T19:47:31.267Z,2.00
2017-10-24T19:49:57.582Z,2.45
2017-10-24T19:52:23.891Z,2.12
2017-10-24T19:54:50.951Z,2.70
2017-10-24T19:57:17.272Z,2.50
2017-10-24T19:59:43.592Z,2.20
2017-10-24T20:02:10.658Z,2.80
2017-10-24T20:04:37.239Z,2.05
2017-10-24T20:07:04.628Z,2.42
2017-10-24T20:09:31.703Z,1.90
2017-10-24T20:11:58.036Z,2.22
2017-10-24T20:14:25.383Z,1.67
2017-10-24T20:16:52.716Z,1.80
2017-10-24T20:19:19.807Z,2.10
2017-10-24T20:21:46.186Z,1.83
2017-10-24T20:24:13.273Z,1.60
2017-10-24T20:26:39.614Z,2.17
2017-10-24T20:29:05.942Z,1.90
2017-10-24T20:31:33.173Z,1.70
2017-10-24T20:33:59.527Z,2.10
2017-10-24T20:36:25.894Z,2.03
2017-10-24T20:38:52.229Z,1.92
2017-10-24T20:41:19.358Z,2.30
2017-10-24T20:43:45.711Z,1.70
2017-10-24T20:46:12.026Z,2.07
2017-10-24T20:48:38.330Z,1.80
2017-10-24T20:51:05.650Z,1.70
2017-10-24T20:53:32.948Z,1.80
2017-10-24T20:55:59.272Z,1.40
2017-10-24T20:58:25.589Z,1.50
2017-10-24T21:00:51.938Z,1.73
2017-10-24T21:03:18.259Z,1.50
2017-10-24T21:05:44.562Z,1.40
2017-10-24T21:08:11.971Z,1.25
2017-10-24T21:10:38.307Z,1.48
2017-10-24T21:13:04.685Z,1.25
2017-10-24T21:15:31.012Z,0.90
2017-10-24T21:17:57.331Z,0.93
2017-10-24T21:20:23.673Z,2.47
2017-10-24T21:22:49.991Z,1.25
2017-10-24T21:25:16.364Z,1.10
2017-10-24T21:27:42.712Z,1.33
2017-10-24T21:30:09.060Z,1.15
2017-10-24T21:32:36.098Z,1.20
2017-10-24T21:35:02.386Z,0.95
2017-10-24T21:37:28.691Z,1.48
2017-10-24T21:39:55.883Z,1.35
2017-10-24T21:42:22.158Z,1.00
2017-10-24T21:44:48.474Z,1.00
2017-10-24T21:47:14.752Z,1.00
2017-10-24T21:49:41.086Z,1.20
2017-10-24T21:52:07.359Z,1.10
2017-10-24T21:54:33.658Z,1.20
2017-10-24T21:56:59.981Z,1.23
2017-10-24T21:59:26.275Z,0.80
2017-10-24T22:01:52.571Z,0.85
2017-10-24T22:04:18.874Z,1.17
2017-10-24T22:06:45.150Z,1.35
2017-10-24T22:09:12.166Z,0.98
2017-10-24T22:11:38.511Z,1.10
2017-10-24T22:14:04.783Z,1.00
2017-10-24T22:16:31.072Z,1.10
2017-10-24T22:18:58.110Z,1.17
2017-10-24T22:21:24.419Z,1.35
2017-10-24T22:23:50.710Z,1.30
2017-10-24T22:26:17.024Z,1.30
2017-10-24T22:28:43.336Z,1.17
2017-10-24T22:31:10.375Z,1.55
2017-10-24T22:33:36.686Z,1.37
2017-10-24T22:36:03.002Z,1.33
2017-10-24T22:38:29.308Z,1.40
2017-10-24T22:40:55.574Z,1.65
2017-10-24T22:43:21.878Z,1.58
2017-10-24T22:45:48.163Z,1.67
2017-10-24T22:48:15.203Z,1.48
2017-10-24T22:50:41.462Z,1.20
2017-10-24T22:53:07.771Z,1.40
2017-10-24T22:55:34.771Z,1.02
2017-10-24T22:58:02.093Z,1.20
2017-10-24T23:00:28.388Z,0.88
2017-10-24T23:02:54.719Z,1.00
2017-10-24T23:05:22.026Z,0.90
2017-10-24T23:07:48.322Z,0.88
2017-10-24T23:10:15.393Z,0.68
2017-10-24T23:12:41.674Z,0.75
2017-10-24T23:15:07.962Z,0.90
2017-10-24T23:17:34.598Z,1.08
2017-10-24T23:20:01.240Z,0.90
2017-10-24T23:22:28.657Z,0.62
2017-10-24T23:24:55.016Z,0.80
2017-10-24T23:27:21.440Z,0.75
2017-10-24T23:29:47.827Z,1.00
2017-10-24T23:32:14.195Z,2.00
2017-10-24T23:34:40.592Z,1.20
2017-10-24T23:37:06.962Z,1.40
2017-10-24T23:39:34.097Z,1.17
2017-10-24T23:42:01.205Z,1.00
2017-10-24T23:44:27.581Z,0.93
2017-10-24T23:46:53.935Z,1.00
2017-10-24T23:49:20.283Z,1.00
2017-10-24T23:51:46.604Z,0.90
2017-10-24T23:54:14.301Z,0.80
2017-10-24T23:56:41.387Z,1.40
2017-10-24T23:59:09.469Z,1.02
